sensor_id;sensor_type;location;lat;lon;timestamp;P1;durP1;ratioP1;P2;durP2;ratioP2
50872;SDS011;72604;40.088;18.346;2024-03-08T00:10:09;21.73;;;16.52;;
50872;SDS011;72604;40.088;18.346;2024-03-08T00:13:52;19.50;;;16.38;;
50872;SDS011;72604;40.088;18.346;2024-03-08T00:29:01;22.58;;;16.23;;
50872;SDS011;72604;40.088;18.346;2024-03-08T00:32:43;21.83;;;17.65;;
50872;SDS011;72604;40.088;18.346;2024-03-08T00:45:52;21.90;;;18.30;;
50872;SDS011;72604;40.088;18.346;2024-03-08T01:04:48;22.25;;;17.75;;
50872;SDS011;72604;40.088;18.346;2024-03-08T01:08:30;23.80;;;17.73;;
50872;SDS011;72604;40.088;18.346;2024-03-08T01:17:56;25.90;;;19.00;;
50872;SDS011;72604;40.088;18.346;2024-03-08T01:21:39;26.15;;;19.65;;
50872;SDS011;72604;40.088;18.346;2024-03-08T01:25:21;26.85;;;20.70;;
50872;SDS011;72604;40.088;18.346;2024-03-08T01:29:02;25.52;;;20.75;;
50872;SDS011;72604;40.088;18.346;2024-03-08T01:38:10;23.70;;;18.88;;
50872;SDS011;72604;40.088;18.346;2024-03-08T01:52:00;25.38;;;21.13;;
50872;SDS011;72604;40.088;18.346;2024-03-08T02:06:22;28.30;;;22.35;;
50872;SDS011;72604;40.088;18.346;2024-03-08T02:10:04;28.15;;;21.85;;
50872;SDS011;72604;40.088;18.346;2024-03-08T02:13:44;26.48;;;20.70;;
50872;SDS011;72604;40.088;18.346;2024-03-08T02:17:25;24.38;;;20.35;;
50872;SDS011;72604;40.088;18.346;2024-03-08T02:41:55;24.42;;;19.33;;
50872;SDS011;72604;40.088;18.346;2024-03-08T02:55:52;21.65;;;16.73;;
50872;SDS011;72604;40.088;18.346;2024-03-08T03:08:56;20.13;;;15.50;;
50872;SDS011;72604;40.088;18.346;2024-03-08T03:27:48;23.52;;;16.05;;
50872;SDS011;72604;40.088;18.346;2024-03-08T03:31:29;21.85;;;16.73;;
50872;SDS011;72604;40.088;18.346;2024-03-08T03:44:40;19.25;;;14.80;;
50872;SDS011;72604;40.088;18.346;2024-03-08T03:48:22;19.83;;;15.55;;
50872;SDS011;72604;40.088;18.346;2024-03-08T03:52:03;18.85;;;15.00;;
50872;SDS011;72604;40.088;18.346;2024-03-08T04:11:02;19.20;;;14.82;;
50872;SDS011;72604;40.088;18.346;2024-03-08T04:20:24;17.67;;;14.35;;
50872;SDS011;72604;40.088;18.346;2024-03-08T04:24:05;20.17;;;14.10;;
50872;SDS011;72604;40.088;18.346;2024-03-08T04:32:21;22.30;;;15.30;;
50872;SDS011;72604;40.088;18.346;2024-03-08T04:41:20;22.33;;;14.90;;
50872;SDS011;72604;40.088;18.346;2024-03-08T04:49:35;20.08;;;13.52;;
50872;SDS011;72604;40.088;18.346;2024-03-08T05:02:42;17.73;;;13.10;;
50872;SDS011;72604;40.088;18.346;2024-03-08T05:16:34;17.77;;;14.18;;
50872;SDS011;72604;40.088;18.346;2024-03-08T05:30:30;16.48;;;12.82;;
50872;SDS011;72604;40.088;18.346;2024-03-08T05:44:24;13.82;;;10.82;;
50872;SDS011;72604;40.088;18.346;2024-03-08T05:48:07;11.30;;;9.23;;
50872;SDS011;72604;40.088;18.346;2024-03-08T05:57:26;12.88;;;9.52;;
50872;SDS011;72604;40.088;18.346;2024-03-08T06:05:41;14.30;;;10.77;;
50872;SDS011;72604;40.088;18.346;2024-03-08T06:09:22;12.80;;;9.68;;
50872;SDS011;72604;40.088;18.346;2024-03-08T06:32:56;13.55;;;11.30;;
50872;SDS011;72604;40.088;18.346;2024-03-08T06:40:44;15.68;;;11.50;;
50872;SDS011;72604;40.088;18.346;2024-03-08T06:48:59;14.43;;;11.00;;
50872;SDS011;72604;40.088;18.346;2024-03-08T07:02:05;15.70;;;12.55;;
50872;SDS011;72604;40.088;18.346;2024-03-08T07:10:22;16.17;;;13.02;;
50872;SDS011;72604;40.088;18.346;2024-03-08T07:14:04;14.45;;;11.57;;
50872;SDS011;72604;40.088;18.346;2024-03-08T07:22:19;12.88;;;9.18;;
50872;SDS011;72604;40.088;18.346;2024-03-08T07:26:03;11.18;;;8.38;;
50872;SDS011;72604;40.088;18.346;2024-03-08T07:35:29;11.52;;;8.48;;
50872;SDS011;72604;40.088;18.346;2024-03-08T07:39:10;8.68;;;6.05;;
50872;SDS011;72604;40.088;18.346;2024-03-08T07:47:23;5.93;;;4.32;;
50872;SDS011;72604;40.088;18.346;2024-03-08T07:51:06;5.82;;;3.83;;
50872;SDS011;72604;40.088;18.346;2024-03-08T07:54:48;4.97;;;2.83;;
50872;SDS011;72604;40.088;18.346;2024-03-08T07:58:29;6.03;;;3.03;;
50872;SDS011;72604;40.088;18.346;2024-03-08T08:02:11;7.95;;;3.13;;
50872;SDS011;72604;40.088;18.346;2024-03-08T08:05:53;3.90;;;2.53;;
50872;SDS011;72604;40.088;18.346;2024-03-08T08:09:35;5.15;;;2.00;;
50872;SDS011;72604;40.088;18.346;2024-03-08T08:13:17;4.55;;;2.42;;
50872;SDS011;72604;40.088;18.346;2024-03-08T08:16:58;4.53;;;2.60;;
50872;SDS011;72604;40.088;18.346;2024-03-08T08:20:43;3.95;;;2.03;;
50872;SDS011;72604;40.088;18.346;2024-03-08T08:24:25;3.80;;;1.90;;
50872;SDS011;72604;40.088;18.346;2024-03-08T08:28:06;4.18;;;1.92;;
50872;SDS011;72604;40.088;18.346;2024-03-08T08:31:48;3.25;;;1.90;;
50872;SDS011;72604;40.088;18.346;2024-03-08T08:35:30;2.75;;;1.27;;
50872;SDS011;72604;40.088;18.346;2024-03-08T08:39:10;2.05;;;1.30;;
50872;SDS011;72604;40.088;18.346;2024-03-08T08:42:55;3.45;;;1.10;;
50872;SDS011;72604;40.088;18.346;2024-03-08T08:46:37;1.95;;;1.10;;
50872;SDS011;72604;40.088;18.346;2024-03-08T08:50:19;1.73;;;1.10;;
50872;SDS011;72604;40.088;18.346;2024-03-08T08:54:03;3.33;;;2.30;;
50872;SDS011;72604;40.088;18.346;2024-03-08T08:57:47;3.17;;;1.70;;
50872;SDS011;72604;40.088;18.346;2024-03-08T09:01:30;2.50;;;1.67;;
50872;SDS011;72604;40.088;18.346;2024-03-08T09:05:11;3.70;;;1.65;;
50872;SDS011;72604;40.088;18.346;2024-03-08T09:08:52;4.15;;;1.88;;
50872;SDS011;72604;40.088;18.346;2024-03-08T09:12:33;3.17;;;1.70;;
50872;SDS011;72604;40.088;18.346;2024-03-08T09:16:15;3.50;;;2.40;;
50872;SDS011;72604;40.088;18.346;2024-03-08T09:19:57;3.90;;;2.45;;
50872;SDS011;72604;40.088;18.346;2024-03-08T09:23:39;3.75;;;2.25;;
50872;SDS011;72604;40.088;18.346;2024-03-08T09:27:21;5.68;;;2.67;;
50872;SDS011;72604;40.088;18.346;2024-03-08T09:31:02;2.33;;;1.65;;
50872;SDS011;72604;40.088;18.346;2024-03-08T09:34:45;1.77;;;1.10;;
50872;SDS011;72604;40.088;18.346;2024-03-08T09:38:27;3.53;;;1.40;;
50872;SDS011;72604;40.088;18.346;2024-03-08T09:42:09;4.20;;;1.42;;
50872;SDS011;72604;40.088;18.346;2024-03-08T09:45:51;3.90;;;1.50;;
50872;SDS011;72604;40.088;18.346;2024-03-08T09:49:33;4.10;;;1.38;;
50872;SDS011;72604;40.088;18.346;2024-03-08T09:53:16;1.90;;;1.20;;
50872;SDS011;72604;40.088;18.346;2024-03-08T09:56:58;1.10;;;0.90;;
50872;SDS011;72604;40.088;18.346;2024-03-08T10:00:40;1.30;;;1.02;;
50872;SDS011;72604;40.088;18.346;2024-03-08T10:04:21;1.70;;;1.13;;
50872;SDS011;72604;40.088;18.346;2024-03-08T10:08:03;2.00;;;0.85;;
50872;SDS011;72604;40.088;18.346;2024-03-08T10:11:44;1.52;;;1.02;;
50872;SDS011;72604;40.088;18.346;2024-03-08T10:15:28;1.35;;;0.75;;
50872;SDS011;72604;40.088;18.346;2024-03-08T10:19:09;1.10;;;0.80;;
50872;SDS011;72604;40.088;18.346;2024-03-08T10:22:52;3.53;;;1.20;;
50872;SDS011;72604;40.088;18.346;2024-03-08T10:26:36;1.23;;;0.90;;
50872;SDS011;72604;40.088;18.346;2024-03-08T10:30:18;1.80;;;1.45;;
50872;SDS011;72604;40.088;18.346;2024-03-08T10:34:02;2.33;;;1.48;;
50872;SDS011;72604;40.088;18.346;2024-03-08T10:37:49;2.15;;;1.30;;
50872;SDS011;72604;40.088;18.346;2024-03-08T10:41:37;2.08;;;1.30;;
50872;SDS011;72604;40.088;18.346;2024-03-08T10:45:23;1.80;;;1.50;;
50872;SDS011;72604;40.088;18.346;2024-03-08T10:49:11;1.65;;;1.20;;
50872;SDS011;72604;40.088;18.346;2024-03-08T10:52:53;1.92;;;1.17;;
50872;SDS011;72604;40.088;18.346;2024-03-08T10:56:35;2.38;;;1.30;;
50872;SDS011;72604;40.088;18.346;2024-03-08T11:00:16;2.17;;;1.50;;
50872;SDS011;72604;40.088;18.346;2024-03-08T11:04:06;3.38;;;2.08;;
50872;SDS011;72604;40.088;18.346;2024-03-08T11:07:49;3.63;;;1.88;;
50872;SDS011;72604;40.088;18.346;2024-03-08T11:11:32;3.58;;;2.58;;
50872;SDS011;72604;40.088;18.346;2024-03-08T11:15:14;3.33;;;2.08;;
50872;SDS011;72604;40.088;18.346;2024-03-08T11:18:59;2.70;;;2.00;;
50872;SDS011;72604;40.088;18.346;2024-03-08T11:22:49;3.17;;;1.95;;
50872;SDS011;72604;40.088;18.346;2024-03-08T11:26:30;4.72;;;2.88;;
50872;SDS011;72604;40.088;18.346;2024-03-08T11:30:12;2.80;;;1.75;;
50872;SDS011;72604;40.088;18.346;2024-03-08T11:34:03;2.75;;;1.40;;
50872;SDS011;72604;40.088;18.346;2024-03-08T11:37:58;3.75;;;2.65;;
50872;SDS011;72604;40.088;18.346;2024-03-08T11:41:41;1.90;;;1.08;;
50872;SDS011;72604;40.088;18.346;2024-03-08T11:45:22;3.97;;;1.52;;
50872;SDS011;72604;40.088;18.346;2024-03-08T11:49:05;2.00;;;1.40;;
50872;SDS011;72604;40.088;18.346;2024-03-08T11:52:47;4.07;;;2.20;;
50872;SDS011;72604;40.088;18.346;2024-03-08T11:56:30;2.60;;;1.80;;
50872;SDS011;72604;40.088;18.346;2024-03-08T12:00:14;2.80;;;2.08;;
50872;SDS011;72604;40.088;18.346;2024-03-08T12:04:02;1.65;;;1.30;;
50872;SDS011;72604;40.088;18.346;2024-03-08T12:07:46;2.53;;;1.73;;
50872;SDS011;72604;40.088;18.346;2024-03-08T12:11:37;2.08;;;1.00;;
50872;SDS011;72604;40.088;18.346;2024-03-08T12:15:19;3.17;;;2.20;;
50872;SDS011;72604;40.088;18.346;2024-03-08T12:19:01;4.32;;;2.30;;
50872;SDS011;72604;40.088;18.346;2024-03-08T12:22:43;2.97;;;2.00;;
50872;SDS011;72604;40.088;18.346;2024-03-08T12:26:24;1.70;;;1.60;;
50872;SDS011;72604;40.088;18.346;2024-03-08T12:30:18;1.98;;;1.20;;
50872;SDS011;72604;40.088;18.346;2024-03-08T12:34:00;2.22;;;1.60;;
50872;SDS011;72604;40.088;18.346;2024-03-08T12:37:43;2.33;;;1.45;;
50872;SDS011;72604;40.088;18.346;2024-03-08T12:41:24;2.42;;;1.63;;
50872;SDS011;72604;40.088;18.346;2024-03-08T12:45:06;2.22;;;1.30;;
50872;SDS011;72604;40.088;18.346;2024-03-08T12:48:50;3.88;;;2.03;;
50872;SDS011;72604;40.088;18.346;2024-03-08T12:52:33;2.63;;;2.00;;
50872;SDS011;72604;40.088;18.346;2024-03-08T12:56:20;10.75;;;4.78;;
50872;SDS011;72604;40.088;18.346;2024-03-08T13:00:09;6.13;;;3.25;;
50872;SDS011;72604;40.088;18.346;2024-03-08T13:03:54;5.10;;;2.08;;
50872;SDS011;72604;40.088;18.346;2024-03-08T13:07:36;3.45;;;2.28;;
50872;SDS011;72604;40.088;18.346;2024-03-08T13:11:18;4.65;;;2.70;;
50872;SDS011;72604;40.088;18.346;2024-03-08T13:14:59;4.32;;;3.92;;
50872;SDS011;72604;40.088;18.346;2024-03-08T13:18:40;5.20;;;4.30;;
50872;SDS011;72604;40.088;18.346;2024-03-08T13:22:24;5.95;;;3.65;;
50872;SDS011;72604;40.088;18.346;2024-03-08T13:26:05;6.10;;;3.92;;
50872;SDS011;72604;40.088;18.346;2024-03-08T13:29:47;3.85;;;2.25;;
50872;SDS011;72604;40.088;18.346;2024-03-08T13:33:29;6.20;;;2.90;;
50872;SDS011;72604;40.088;18.346;2024-03-08T13:37:10;2.40;;;2.15;;
50872;SDS011;72604;40.088;18.346;2024-03-08T13:40:53;2.00;;;1.50;;
50872;SDS011;72604;40.088;18.346;2024-03-08T13:44:33;2.63;;;1.70;;
50872;SDS011;72604;40.088;18.346;2024-03-08T13:48:14;1.63;;;0.90;;
50872;SDS011;72604;40.088;18.346;2024-03-08T13:51:56;2.90;;;1.20;;
50872;SDS011;72604;40.088;18.346;2024-03-08T13:55:38;2.63;;;1.40;;
50872;SDS011;72604;40.088;18.346;2024-03-08T13:59:21;1.92;;;1.10;;
50872;SDS011;72604;40.088;18.346;2024-03-08T14:03:04;1.92;;;1.02;;
50872;SDS011;72604;40.088;18.346;2024-03-08T14:06:46;2.17;;;1.30;;
50872;SDS011;72604;40.088;18.346;2024-03-08T14:10:28;2.60;;;0.88;;
50872;SDS011;72604;40.088;18.346;2024-03-08T14:14:11;1.80;;;1.00;;
50872;SDS011;72604;40.088;18.346;2024-03-08T14:17:53;1.38;;;0.98;;
50872;SDS011;72604;40.088;18.346;2024-03-08T14:21:35;1.90;;;1.05;;
50872;SDS011;72604;40.088;18.346;2024-03-08T14:25:19;1.13;;;0.95;;
50872;SDS011;72604;40.088;18.346;2024-03-08T14:29:00;4.13;;;2.60;;
50872;SDS011;72604;40.088;18.346;2024-03-08T14:32:41;0.95;;;0.70;;
50872;SDS011;72604;40.088;18.346;2024-03-08T14:36:24;2.88;;;0.90;;
50872;SDS011;72604;40.088;18.346;2024-03-08T14:40:06;2.42;;;1.08;;
50872;SDS011;72604;40.088;18.346;2024-03-08T14:43:48;3.05;;;1.30;;
50872;SDS011;72604;40.088;18.346;2024-03-08T14:47:32;1.48;;;1.35;;
50872;SDS011;72604;40.088;18.346;2024-03-08T14:51:14;2.35;;;0.90;;
50872;SDS011;72604;40.088;18.346;2024-03-08T14:54:56;3.83;;;2.42;;
50872;SDS011;72604;40.088;18.346;2024-03-08T14:58:38;2.88;;;1.50;;
50872;SDS011;72604;40.088;18.346;2024-03-08T15:02:19;3.85;;;2.50;;
50872;SDS011;72604;40.088;18.346;2024-03-08T15:06:01;3.30;;;1.60;;
50872;SDS011;72604;40.088;18.346;2024-03-08T15:09:47;2.40;;;1.40;;
50872;SDS011;72604;40.088;18.346;2024-03-08T15:13:30;2.42;;;1.38;;
50872;SDS011;72604;40.088;18.346;2024-03-08T15:17:18;2.63;;;1.10;;
50872;SDS011;72604;40.088;18.346;2024-03-08T15:21:01;3.22;;;2.28;;
50872;SDS011;72604;40.088;18.346;2024-03-08T15:24:46;2.30;;;1.23;;
50872;SDS011;72604;40.088;18.346;2024-03-08T15:28:27;2.35;;;1.52;;
50872;SDS011;72604;40.088;18.346;2024-03-08T15:32:17;3.15;;;1.63;;
50872;SDS011;72604;40.088;18.346;2024-03-08T15:36:01;3.67;;;2.97;;
50872;SDS011;72604;40.088;18.346;2024-03-08T15:39:47;4.57;;;2.05;;
50872;SDS011;72604;40.088;18.346;2024-03-08T15:43:29;6.10;;;4.22;;
50872;SDS011;72604;40.088;18.346;2024-03-08T15:47:09;5.10;;;2.30;;
50872;SDS011;72604;40.088;18.346;2024-03-08T15:50:53;3.65;;;2.00;;
50872;SDS011;72604;40.088;18.346;2024-03-08T15:54:36;4.13;;;2.05;;
50872;SDS011;72604;40.088;18.346;2024-03-08T15:58:19;3.97;;;2.65;;
50872;SDS011;72604;40.088;18.346;2024-03-08T16:02:00;5.30;;;2.10;;
50872;SDS011;72604;40.088;18.346;2024-03-08T16:05:41;7.00;;;3.90;;
50872;SDS011;72604;40.088;18.346;2024-03-08T16:09:24;80.55;;;46.85;;
50872;SDS011;72604;40.088;18.346;2024-03-08T16:13:08;18.92;;;16.55;;
50872;SDS011;72604;40.088;18.346;2024-03-08T16:16:49;19.67;;;14.63;;
50872;SDS011;72604;40.088;18.346;2024-03-08T16:20:31;32.60;;;23.52;;
50872;SDS011;72604;40.088;18.346;2024-03-08T16:24:13;11.68;;;7.72;;
50872;SDS011;72604;40.088;18.346;2024-03-08T16:27:55;12.85;;;7.68;;
50872;SDS011;72604;40.088;18.346;2024-03-08T16:31:36;9.10;;;5.50;;
50872;SDS011;72604;40.088;18.346;2024-03-08T16:35:20;9.13;;;6.22;;
50872;SDS011;72604;40.088;18.346;2024-03-08T16:39:01;8.98;;;7.15;;
50872;SDS011;72604;40.088;18.346;2024-03-08T16:42:43;8.68;;;5.20;;
50872;SDS011;72604;40.088;18.346;2024-03-08T16:46:26;13.20;;;10.52;;
50872;SDS011;72604;40.088;18.346;2024-03-08T16:50:11;17.92;;;13.15;;
50872;SDS011;72604;40.088;18.346;2024-03-08T16:53:54;21.75;;;16.65;;
50872;SDS011;72604;40.088;18.346;2024-03-08T16:57:35;20.08;;;15.25;;
50872;SDS011;72604;40.088;18.346;2024-03-08T17:01:17;32.33;;;28.33;;
50872;SDS011;72604;40.088;18.346;2024-03-08T17:04:59;34.22;;;27.70;;
50872;SDS011;72604;40.088;18.346;2024-03-08T17:08:44;21.98;;;18.90;;
50872;SDS011;72604;40.088;18.346;2024-03-08T17:12:26;25.83;;;22.98;;
50872;SDS011;72604;40.088;18.346;2024-03-08T17:16:07;28.95;;;24.73;;
50872;SDS011;72604;40.088;18.346;2024-03-08T17:19:52;24.52;;;19.25;;
50872;SDS011;72604;40.088;18.346;2024-03-08T17:23:36;19.27;;;14.80;;
50872;SDS011;72604;40.088;18.346;2024-03-08T17:27:18;25.13;;;21.45;;
50872;SDS011;72604;40.088;18.346;2024-03-08T17:30:59;20.52;;;16.75;;
50872;SDS011;72604;40.088;18.346;2024-03-08T17:34:40;19.30;;;16.48;;
50872;SDS011;72604;40.088;18.346;2024-03-08T17:38:21;23.90;;;21.30;;
50872;SDS011;72604;40.088;18.346;2024-03-08T17:42:05;21.00;;;18.73;;
50872;SDS011;72604;40.088;18.346;2024-03-08T17:45:46;25.48;;;22.92;;
50872;SDS011;72604;40.088;18.346;2024-03-08T17:49:28;30.02;;;25.73;;
50872;SDS011;72604;40.088;18.346;2024-03-08T17:53:09;34.33;;;29.13;;
50872;SDS011;72604;40.088;18.346;2024-03-08T17:56:51;40.88;;;33.45;;
50872;SDS011;72604;40.088;18.346;2024-03-08T18:00:36;37.53;;;32.33;;
50872;SDS011;72604;40.088;18.346;2024-03-08T18:04:18;36.28;;;29.30;;
50872;SDS011;72604;40.088;18.346;2024-03-08T18:08:02;40.80;;;32.25;;
50872;SDS011;72604;40.088;18.346;2024-03-08T18:11:44;40.67;;;32.60;;
50872;SDS011;72604;40.088;18.346;2024-03-08T18:15:25;26.92;;;23.00;;
50872;SDS011;72604;40.088;18.346;2024-03-08T18:19:08;22.77;;;18.63;;
50872;SDS011;72604;40.088;18.346;2024-03-08T18:22:50;35.55;;;23.48;;
50872;SDS011;72604;40.088;18.346;2024-03-08T18:26:31;42.58;;;34.10;;
50872;SDS011;72604;40.088;18.346;2024-03-08T18:30:13;58.05;;;40.72;;
50872;SDS011;72604;40.088;18.346;2024-03-08T18:33:59;30.33;;;26.45;;
50872;SDS011;72604;40.088;18.346;2024-03-08T18:37:41;34.17;;;27.30;;
50872;SDS011;72604;40.088;18.346;2024-03-08T18:41:22;29.10;;;21.77;;
50872;SDS011;72604;40.088;18.346;2024-03-08T18:45:07;42.08;;;32.08;;
50872;SDS011;72604;40.088;18.346;2024-03-08T18:48:52;59.17;;;49.55;;
50872;SDS011;72604;40.088;18.346;2024-03-08T18:52:33;49.20;;;38.28;;
50872;SDS011;72604;40.088;18.346;2024-03-08T18:56:17;34.92;;;27.77;;
50872;SDS011;72604;40.088;18.346;2024-03-08T18:59:58;35.85;;;28.65;;
50872;SDS011;72604;40.088;18.346;2024-03-08T19:03:40;31.65;;;26.05;;
50872;SDS011;72604;40.088;18.346;2024-03-08T19:07:21;21.00;;;16.83;;
50872;SDS011;72604;40.088;18.346;2024-03-08T19:11:02;25.30;;;20.67;;
50872;SDS011;72604;40.088;18.346;2024-03-08T19:14:46;23.00;;;16.88;;
50872;SDS011;72604;40.088;18.346;2024-03-08T19:18:27;34.72;;;31.08;;
50872;SDS011;72604;40.088;18.346;2024-03-08T19:22:09;45.35;;;36.08;;
50872;SDS011;72604;40.088;18.346;2024-03-08T19:25:52;37.45;;;32.65;;
50872;SDS011;72604;40.088;18.346;2024-03-08T19:29:34;35.83;;;28.30;;
50872;SDS011;72604;40.088;18.346;2024-03-08T19:33:17;29.20;;;22.23;;
50872;SDS011;72604;40.088;18.346;2024-03-08T19:37:00;30.10;;;26.85;;
50872;SDS011;72604;40.088;18.346;2024-03-08T19:40:42;33.78;;;24.48;;
50872;SDS011;72604;40.088;18.346;2024-03-08T19:44:24;43.88;;;32.00;;
50872;SDS011;72604;40.088;18.346;2024-03-08T19:48:05;28.50;;;21.48;;
50872;SDS011;72604;40.088;18.346;2024-03-08T19:51:50;23.63;;;17.02;;
50872;SDS011;72604;40.088;18.346;2024-03-08T19:55:31;26.45;;;21.52;;
50872;SDS011;72604;40.088;18.346;2024-03-08T19:59:12;21.73;;;19.38;;
50872;SDS011;72604;40.088;18.346;2024-03-08T20:02:54;25.00;;;19.35;;
50872;SDS011;72604;40.088;18.346;2024-03-08T20:06:36;34.45;;;27.48;;
50872;SDS011;72604;40.088;18.346;2024-03-08T20:10:21;25.05;;;17.55;;
50872;SDS011;72604;40.088;18.346;2024-03-08T20:14:02;23.70;;;14.77;;
50872;SDS011;72604;40.088;18.346;2024-03-08T20:17:45;26.88;;;20.08;;
50872;SDS011;72604;40.088;18.346;2024-03-08T20:21:27;40.22;;;32.20;;
50872;SDS011;72604;40.088;18.346;2024-03-08T20:25:08;28.38;;;25.25;;
50872;SDS011;72604;40.088;18.346;2024-03-08T20:28:54;34.60;;;24.15;;
50872;SDS011;72604;40.088;18.346;2024-03-08T20:32:37;36.05;;;28.02;;
50872;SDS011;72604;40.088;18.346;2024-03-08T20:36:19;29.15;;;21.85;;
50872;SDS011;72604;40.088;18.346;2024-03-08T20:40:00;40.05;;;32.33;;
50872;SDS011;72604;40.088;18.346;2024-03-08T20:43:42;44.90;;;33.85;;
50872;SDS011;72604;40.088;18.346;2024-03-08T20:47:25;53.35;;;40.85;;
50872;SDS011;72604;40.088;18.346;2024-03-08T20:51:05;18.40;;;15.00;;
50872;SDS011;72604;40.088;18.346;2024-03-08T20:54:46;17.70;;;13.75;;
50872;SDS011;72604;40.088;18.346;2024-03-08T20:58:28;20.30;;;14.32;;
50872;SDS011;72604;40.088;18.346;2024-03-08T21:02:09;37.28;;;28.63;;
50872;SDS011;72604;40.088;18.346;2024-03-08T21:05:52;28.48;;;23.75;;
50872;SDS011;72604;40.088;18.346;2024-03-08T21:09:35;23.50;;;18.85;;
50872;SDS011;72604;40.088;18.346;2024-03-08T21:13:16;25.52;;;20.15;;
50872;SDS011;72604;40.088;18.346;2024-03-08T21:16:57;25.88;;;21.30;;
50872;SDS011;72604;40.088;18.346;2024-03-08T21:20:38;31.83;;;24.48;;
50872;SDS011;72604;40.088;18.346;2024-03-08T21:24:22;23.80;;;19.98;;
50872;SDS011;72604;40.088;18.346;2024-03-08T21:28:03;21.60;;;17.13;;
50872;SDS011;72604;40.088;18.346;2024-03-08T21:31:46;17.45;;;13.80;;
50872;SDS011;72604;40.088;18.346;2024-03-08T21:35:28;16.20;;;12.48;;
50872;SDS011;72604;40.088;18.346;2024-03-08T21:39:12;15.55;;;12.27;;
50872;SDS011;72604;40.088;18.346;2024-03-08T21:42:55;16.63;;;12.85;;
50872;SDS011;72604;40.088;18.346;2024-03-08T21:46:36;15.02;;;11.77;;
50872;SDS011;72604;40.088;18.346;2024-03-08T21:50:18;16.15;;;12.10;;
50872;SDS011;72604;40.088;18.346;2024-03-08T21:54:00;22.88;;;14.93;;
50872;SDS011;72604;40.088;18.346;2024-03-08T21:57:41;26.45;;;17.38;;
50872;SDS011;72604;40.088;18.346;2024-03-08T22:01:24;18.27;;;12.27;;
50872;SDS011;72604;40.088;18.346;2024-03-08T22:05:06;18.70;;;12.25;;
50872;SDS011;72604;40.088;18.346;2024-03-08T22:08:48;17.48;;;10.50;;
50872;SDS011;72604;40.088;18.346;2024-03-08T22:12:29;14.00;;;8.68;;
50872;SDS011;72604;40.088;18.346;2024-03-08T22:16:11;17.38;;;9.82;;
50872;SDS011;72604;40.088;18.346;2024-03-08T22:19:54;15.23;;;9.57;;
50872;SDS011;72604;40.088;18.346;2024-03-08T22:23:35;11.45;;;7.97;;
50872;SDS011;72604;40.088;18.346;2024-03-08T22:27:17;18.30;;;9.85;;
50872;SDS011;72604;40.088;18.346;2024-03-08T22:30:59;11.32;;;5.47;;
50872;SDS011;72604;40.088;18.346;2024-03-08T22:34:40;9.77;;;7.13;;
50872;SDS011;72604;40.088;18.346;2024-03-08T22:38:22;11.93;;;7.43;;
50872;SDS011;72604;40.088;18.346;2024-03-08T22:42:04;7.68;;;6.00;;
50872;SDS011;72604;40.088;18.346;2024-03-08T22:45:45;15.75;;;10.10;;
50872;SDS011;72604;40.088;18.346;2024-03-08T22:49:28;11.43;;;8.80;;
50872;SDS011;72604;40.088;18.346;2024-03-08T22:53:11;13.85;;;7.78;;
50872;SDS011;72604;40.088;18.346;2024-03-08T22:56:54;10.48;;;7.93;;
50872;SDS011;72604;40.088;18.346;2024-03-08T23:00:36;12.40;;;8.00;;
50872;SDS011;72604;40.088;18.346;2024-03-08T23:04:36;12.32;;;6.28;;
50872;SDS011;72604;40.088;18.346;2024-03-08T23:08:17;11.35;;;7.13;;
50872;SDS011;72604;40.088;18.346;2024-03-08T23:12:00;11.02;;;6.72;;
50872;SDS011;72604;40.088;18.346;2024-03-08T23:15:41;8.07;;;5.22;;
50872;SDS011;72604;40.088;18.346;2024-03-08T23:19:23;10.48;;;5.32;;
50872;SDS011;72604;40.088;18.346;2024-03-08T23:27:17;7.72;;;4.25;;
50872;SDS011;72604;40.088;18.346;2024-03-08T23:30:59;6.75;;;2.97;;
50872;SDS011;72604;40.088;18.346;2024-03-08T23:34:40;5.32;;;2.72;;
50872;SDS011;72604;40.088;18.346;2024-03-08T23:38:21;7.28;;;3.17;;
50872;SDS011;72604;40.088;18.346;2024-03-08T23:42:03;6.70;;;2.53;;
50872;SDS011;72604;40.088;18.346;2024-03-08T23:45:46;6.50;;;2.40;;
50872;SDS011;72604;40.088;18.346;2024-03-08T23:49:27;6.32;;;2.53;;
50872;SDS011;72604;40.088;18.346;2024-03-08T23:53:09;5.78;;;2.83;;
50872;SDS011;72604;40.088;18.346;2024-03-08T23:56:50;6.10;;;2.75;;
